Time;durP1;ratioP1;P1;durP2;ratioP2;P2;SDS_P1;SDS_P2;PMS_P1;PMS_P2;Temp;Humidity;BMP_temperature;BMP_pressure;BME280_temperature;BME280_humidity;BME280_pressure;Samples;Min_cycle;Max_cycle;Signal;HPM_P1;HPM_P2
2022/06/20 00:01:46;;;;;;;0.50;0.20;;;;;;;22.31;76.53;99463.31;4982246;28;20457;-47
2022/06/20 00:04:17;;;;;;;0.50;0.20;;;;;;;22.39;76.26;99463.50;4986793;28;20454;-47
2022/06/20 00:06:49;;;;;;;0.50;0.20;;;;;;;22.23;77.13;99444.22;4989494;28;20446;-48
2022/06/20 00:09:15;;;;;;;0.50;0.20;;;;;;;22.15;77.22;99444.91;4986917;28;20446;-47
2022/06/20 00:11:45;;;;;;;0.50;0.20;;;;;;;22.29;77.34;99449.06;5004247;28;20454;-47
2022/06/20 00:14:16;;;;;;;0.40;0.20;;;;;;;22.11;77.66;99448.91;4997366;28;20488;-47
2022/06/20 00:16:43;;;;;;;0.40;0.20;;;;;;;21.95;78.65;99437.69;4993369;28;20517;-47
2022/06/20 00:19:11;;;;;;;0.43;0.20;;;;;;;22.04;78.11;99437.72;4983194;28;20485;-48
2022/06/20 00:21:38;;;;;;;0.50;0.30;;;;;;;22.02;78.24;99436.13;4991154;28;20454;-49
2022/06/20 00:24:06;;;;;;;0.43;0.20;;;;;;;21.78;79.59;99428.34;4988258;28;20457;-48
2022/06/20 00:26:35;;;;;;;0.50;0.20;;;;;;;21.98;79.11;99429.31;4989033;28;21033;-48
2022/06/20 00:29:03;;;;;;;3.00;2.73;;;;;;;22.05;78.32;99425.91;5001485;28;20480;-48
2022/06/20 00:31:30;;;;;;;0.40;0.20;;;;;;;22.08;78.82;99439.22;4988312;28;20489;-47
2022/06/20 00:33:57;;;;;;;0.40;0.20;;;;;;;22.05;78.50;99433.16;4990733;28;20454;-47
2022/06/20 00:36:24;;;;;;;0.50;0.30;;;;;;;21.83;79.02;99434.22;5000978;28;20484;-47
2022/06/20 00:38:53;;;;;;;0.50;0.20;;;;;;;21.82;79.51;99444.19;4981916;28;20524;-47
2022/06/20 00:41:25;;;;;;;0.50;0.20;;;;;;;21.78;79.79;99448.16;4995430;28;20508;-47
2022/06/20 00:43:53;;;;;;;0.40;0.20;;;;;;;22.06;78.39;99446.56;5000842;28;20480;-47
2022/06/20 00:46:23;;;;;;;0.50;0.20;;;;;;;22.06;78.38;99457.41;4986190;28;20474;-48
2022/06/20 00:48:55;;;;;;;0.50;0.20;;;;;;;21.89;79.21;99460.72;4995601;28;20455;-47
2022/06/20 00:51:51;;;;;;;0.50;0.20;;;;;;;21.82;79.60;99473.09;4986159;28;20449;-49
2022/06/20 00:54:23;;;;;;;0.50;0.20;;;;;;;21.76;79.89;99487.16;4996667;28;20485;-48
2022/06/20 00:57:10;;;;;;;0.50;0.20;;;;;;;21.60;80.58;99487.66;4986990;28;20526;-47
2022/06/20 00:59:44;;;;;;;0.40;0.20;;;;;;;21.53;81.33;99487.34;4985493;28;20540;-47
2022/06/20 01:02:16;;;;;;;0.50;0.20;;;;;;;21.45;81.06;99492.53;4987502;28;20479;-47
2022/06/20 01:05:00;;;;;;;0.50;0.20;;;;;;;21.51;80.83;99497.41;5000518;28;20481;-47
2022/06/20 01:07:51;;;;;;;0.50;0.30;;;;;;;21.58;80.68;99525.66;5000597;28;20461;-47
2022/06/20 01:10:19;;;;;;;0.50;0.20;;;;;;;21.42;81.12;99563.13;5000540;28;20488;-48
2022/06/20 01:13:10;;;;;;;0.50;0.20;;;;;;;21.35;80.87;99629.50;4990447;28;20523;-48
2022/06/20 01:15:40;;;;;;;0.50;0.20;;;;;;;21.24;80.09;99679.06;5004650;28;20508;-48
2022/06/20 01:18:15;;;;;;;0.50;0.20;;;;;;;20.99;80.73;99691.03;4987837;28;20482;-48
2022/06/20 01:20:44;;;;;;;0.50;0.20;;;;;;;21.18;80.31;99716.53;4986724;28;20453;-46
2022/06/20 01:23:25;;;;;;;0.50;0.20;;;;;;;21.27;79.87;99700.47;4997544;28;20991;-47
2022/06/20 01:26:07;;;;;;;0.50;0.20;;;;;;;21.25;79.76;99671.84;4978249;28;20531;-47
2022/06/20 01:28:39;;;;;;;0.50;0.20;;;;;;;20.94;79.57;99690.53;4994648;28;20511;-47
2022/06/20 01:31:09;;;;;;;0.50;0.20;;;;;;;20.91;79.56;99679.97;5000891;28;20461;-47
2022/06/20 01:33:36;;;;;;;0.47;0.20;;;;;;;20.71;80.23;99683.44;4985327;28;20486;-47
2022/06/20 01:38:49;;;;;;;0.50;0.20;;;;;;;20.03;80.86;99716.69;4991561;28;20523;-47
2022/06/20 01:44:04;;;;;;;0.50;0.20;;;;;;;19.97;81.05;99722.53;4976736;28;20466;-47
2022/06/20 01:46:33;;;;;;;0.50;0.20;;;;;;;20.01;80.85;99722.19;4985025;28;20478;-47
2022/06/20 01:49:07;;;;;;;0.40;0.20;;;;;;;19.89;81.57;99711.47;4985821;28;20970;-46
2022/06/20 01:51:48;;;;;;;0.50;0.20;;;;;;;19.89;81.63;99674.56;4984095;28;20453;-47
2022/06/20 01:54:17;;;;;;;0.50;0.20;;;;;;;19.99;81.76;99645.88;4997109;28;20452;-47
2022/06/20 01:56:46;;;;;;;0.47;0.20;;;;;;;20.07;81.95;99639.91;4989285;28;20807;-47
2022/06/20 01:59:25;;;;;;;0.40;0.20;;;;;;;20.19;81.31;99620.03;4981306;28;20482;-47
2022/06/20 02:01:53;;;;;;;0.50;0.20;;;;;;;20.26;81.21;99610.47;4997307;28;20560;-47
2022/06/20 02:04:25;;;;;;;0.40;0.20;;;;;;;20.08;81.79;99599.28;4991126;28;20457;-46
2022/06/20 02:06:52;;;;;;;0.47;0.20;;;;;;;20.40;80.73;99590.47;4983766;28;20808;-46
2022/06/20 02:09:19;;;;;;;0.40;0.20;;;;;;;20.58;79.79;99562.03;4981921;28;20516;-47
2022/06/20 02:11:47;;;;;;;0.40;0.20;;;;;;;20.70;79.50;99573.66;4994150;28;20914;-47
2022/06/20 02:14:25;;;;;;;0.40;0.20;;;;;;;20.93;78.52;99561.81;4988431;28;20454;-47
2022/06/20 02:17:00;;;;;;;0.40;0.20;;;;;;;21.02;78.19;99540.41;4991173;28;20456;-47
2022/06/20 02:19:31;;;;;;;0.50;0.20;;;;;;;20.86;78.73;99549.81;4985892;28;20849;-46
2022/06/20 02:22:01;;;;;;;0.40;0.20;;;;;;;20.88;78.85;99555.94;4978314;28;20474;-47
2022/06/20 02:24:33;;;;;;;0.50;0.20;;;;;;;21.06;78.19;99558.94;4988684;28;21169;-50
2022/06/20 02:27:02;;;;;;;0.40;0.20;;;;;;;21.16;77.39;99562.59;4988507;28;20453;-50
2022/06/20 02:29:30;;;;;;;0.40;0.20;;;;;;;21.07;77.43;99555.25;4996789;28;20874;-50
2022/06/20 02:32:03;;;;;;;0.40;0.20;;;;;;;21.16;77.05;99538.25;4982497;28;20481;-50
2022/06/20 02:34:30;;;;;;;0.40;0.20;;;;;;;21.45;76.29;99534.97;4988391;28;20533;-49
2022/06/20 02:37:03;;;;;;;0.40;0.20;;;;;;;21.26;76.11;99519.47;4986184;28;20835;-50
2022/06/20 02:39:31;;;;;;;0.40;0.20;;;;;;;21.21;76.88;99532.47;4985091;28;20494;-50
2022/06/20 02:42:03;;;;;;;0.40;0.20;;;;;;;21.21;76.74;99536.03;4991567;28;20461;-49
2022/06/20 02:44:32;;;;;;;0.40;0.20;;;;;;;21.32;76.41;99540.56;4983234;28;20453;-49
2022/06/20 02:47:04;;;;;;;0.40;0.20;;;;;;;21.39;76.10;99551.72;4984863;28;20444;-50
2022/06/20 02:49:33;;;;;;;9.43;8.47;;;;;;;21.36;76.17;99535.72;4992251;28;20454;-49
2022/06/20 02:52:02;;;;;;;0.40;0.20;;;;;;;21.41;75.96;99520.84;4986136;28;20451;-49
2022/06/20 02:54:33;;;;;;;0.40;0.20;;;;;;;21.36;76.21;99514.97;4988742;28;20458;-48
2022/06/20 02:57:41;;;;;;;0.40;0.20;;;;;;;21.40;76.45;99519.13;4979742;28;20453;-49
2022/06/20 03:00:15;;;;;;;0.40;0.20;;;;;;;21.45;75.91;99499.81;4986096;28;20490;-50
2022/06/20 03:02:48;;;;;;;0.40;0.20;;;;;;;21.46;77.34;99512.34;5005677;28;20481;-50
2022/06/20 03:05:15;;;;;;;0.40;0.20;;;;;;;21.57;75.59;99529.34;4997354;28;20477;-50
2022/06/20 03:07:43;;;;;;;0.40;0.20;;;;;;;21.62;75.42;99538.91;4992595;28;20453;-51
2022/06/20 03:10:18;;;;;;;0.40;0.20;;;;;;;21.61;76.19;99520.97;4992694;28;20453;-50
2022/06/20 03:12:45;;;;;;;0.40;0.20;;;;;;;21.51;76.25;99500.13;4991303;28;20871;-49
2022/06/20 03:15:13;;;;;;;0.50;0.20;;;;;;;21.32;77.42;99510.81;4979867;28;20505;-50
2022/06/20 03:17:41;;;;;;;0.40;0.20;;;;;;;21.23;77.92;99512.41;4991445;28;20480;-51
2022/06/20 03:20:13;;;;;;;0.40;0.20;;;;;;;21.44;76.73;99495.38;4992512;28;20588;-50
2022/06/20 03:22:52;;;;;;;0.40;0.20;;;;;;;21.46;77.09;99512.34;5009938;28;20863;-50
2022/06/20 03:25:20;;;;;;;0.40;0.20;;;;;;;21.42;77.57;99514.44;4990598;28;20480;-50
2022/06/20 03:27:51;;;;;;;0.40;0.30;;;;;;;21.28;77.71;99507.53;4980026;28;20457;-50
2022/06/20 03:30:31;;;;;;;0.40;0.20;;;;;;;21.30;77.97;99507.38;4981614;28;20455;-50
2022/06/20 03:33:00;;;;;;;0.40;0.20;;;;;;;21.08;78.74;99505.59;4979570;28;20449;-50
2022/06/20 03:35:30;;;;;;;0.40;0.20;;;;;;;20.90;79.78;99508.03;4989606;28;20891;-50
2022/06/20 03:37:59;;;;;;;0.40;0.20;;;;;;;20.99;80.12;99530.72;5001659;28;20453;-50
2022/06/20 03:40:26;;;;;;;0.40;0.20;;;;;;;20.48;82.31;99517.84;4996916;28;20563;-51
2022/06/20 03:42:56;;;;;;;0.40;0.20;;;;;;;21.07;80.15;99519.25;4988543;28;20804;-51
2022/06/20 03:45:27;;;;;;;0.40;0.20;;;;;;;21.14;79.50;99512.34;4987985;28;20481;-50
2022/06/20 03:48:00;;;;;;;0.40;0.20;;;;;;;21.08;79.44;99500.19;4991627;28;20867;-50
2022/06/20 03:50:38;;;;;;;0.40;0.20;;;;;;;21.11;79.77;99507.22;4983155;28;20503;-51
2022/06/20 03:53:34;;;;;;;0.40;0.20;;;;;;;21.08;80.26;99529.94;4990205;28;20453;-50
2022/06/20 03:56:25;;;;;;;0.40;0.20;;;;;;;21.18;79.40;99552.50;4984346;28;20472;-50
2022/06/20 03:58:58;;;;;;;0.40;0.20;;;;;;;21.23;78.76;99552.09;4995027;28;20523;-50
2022/06/20 04:01:37;;;;;;;0.40;0.30;;;;;;;21.17;79.35;99556.19;5005647;28;20460;-51
2022/06/20 04:04:16;;;;;;;0.40;0.20;;;;;;;21.22;79.55;99563.91;4993196;28;20939;-51
2022/06/20 04:06:50;;;;;;;0.40;0.20;;;;;;;21.29;78.69;99567.84;4989229;28;20512;-51
2022/06/20 04:12:52;;;;;;;0.40;0.20;;;;;;;21.17;79.43;99609.41;4964984;28;20525;-50
2022/06/20 04:15:25;;;;;;;0.40;0.30;;;;;;;21.10;80.17;99619.00;4983519;28;20884;-50
2022/06/20 04:20:52;;;;;;;0.40;0.20;;;;;;;20.87;81.42;99680.34;4994749;28;20957;-50
2022/06/20 04:23:25;;;;;;;0.40;0.20;;;;;;;20.58;82.95;99720.50;4984826;28;20951;-49
2022/06/20 04:26:12;;;;;;;0.40;0.20;;;;;;;20.29;84.33;99702.03;5002523;28;20476;-50
2022/06/20 04:29:14;;;;;;;0.40;0.20;;;;;;;20.58;82.72;99669.19;4986784;28;20582;-50
2022/06/20 04:31:41;;;;;;;0.40;0.20;;;;;;;20.74;81.79;99671.50;4992927;28;20464;-49
2022/06/20 04:34:17;;;;;;;0.40;0.20;;;;;;;20.54;83.17;99681.19;4992329;28;20462;-50
2022/06/20 04:36:54;;;;;;;0.40;0.20;;;;;;;20.48;83.33;99682.56;4997103;28;20460;-50
2022/06/20 04:39:39;;;;;;;0.40;0.20;;;;;;;20.66;82.91;99674.81;4997407;28;20540;-50
2022/06/20 04:42:27;;;;;;;0.40;0.20;;;;;;;20.63;82.97;99711.03;4999917;28;20457;-51
2022/06/20 04:45:10;;;;;;;0.40;0.20;;;;;;;20.62;83.19;99682.31;4995300;28;20524;-50
2022/06/20 04:47:42;;;;;;;0.47;0.20;;;;;;;20.46;83.76;99633.22;4994908;28;20946;-51
2022/06/20 04:50:16;;;;;;;0.40;0.20;;;;;;;20.57;84.45;99644.03;4980084;28;20503;-51
2022/06/20 04:52:44;;;;;;;0.40;0.20;;;;;;;20.69;84.22;99659.22;4995762;28;20961;-50
2022/06/20 04:55:17;;;;;;;0.40;0.20;;;;;;;20.86;83.50;99652.47;5000815;28;20472;-50
2022/06/20 04:57:50;;;;;;;0.40;0.20;;;;;;;20.94;83.37;99677.00;4987653;28;20457;-51
2022/06/20 05:00:23;;;;;;;0.40;0.20;;;;;;;21.08;82.12;99681.28;4988604;28;20595;-51
2022/06/20 05:02:53;;;;;;;0.40;0.20;;;;;;;21.13;82.57;99706.13;4986416;28;20828;-51
2022/06/20 05:05:30;;;;;;;0.40;0.20;;;;;;;21.11;82.84;99718.91;4984353;28;20504;-50
2022/06/20 05:07:56;;;;;;;0.40;0.20;;;;;;;21.14;82.57;99731.31;4996457;28;20456;-50
2022/06/20 05:10:35;;;;;;;0.40;0.20;;;;;;;21.14;82.69;99723.19;5001383;28;20599;-50
2022/06/20 05:13:06;;;;;;;0.40;0.20;;;;;;;21.07;82.79;99722.81;4994649;28;20809;-50
2022/06/20 05:15:44;;;;;;;0.40;0.20;;;;;;;21.16;82.49;99700.44;4985065;28;20478;-50
2022/06/20 05:18:16;;;;;;;0.40;0.20;;;;;;;21.16;82.39;99695.03;4990198;28;20511;-50
2022/06/20 05:20:44;;;;;;;0.40;0.20;;;;;;;20.92;83.67;99707.84;5002237;28;20493;-49
2022/06/20 05:23:16;;;;;;;0.40;0.20;;;;;;;21.07;83.57;99717.41;4984405;28;20489;-49
2022/06/20 05:25:43;;;;;;;0.40;0.20;;;;;;;21.22;82.48;99726.13;4984660;28;20487;-48
2022/06/20 05:28:15;;;;;;;0.40;0.20;;;;;;;21.12;82.93;99733.28;5000885;28;20818;-50
2022/06/20 05:30:44;;;;;;;0.40;0.20;;;;;;;21.19;82.90;99734.47;4993239;28;21005;-50
2022/06/20 05:33:29;;;;;;;0.40;0.20;;;;;;;21.19;82.74;99729.06;4994766;28;20503;-50
2022/06/20 05:36:05;;;;;;;0.40;0.20;;;;;;;21.00;84.06;99722.47;4986916;28;20544;-51
2022/06/20 05:38:51;;;;;;;0.40;0.20;;;;;;;21.22;83.37;99723.41;5005281;28;20452;-49
2022/06/20 05:41:19;;;;;;;0.40;0.20;;;;;;;21.29;83.22;99728.22;4978152;28;20454;-50
2022/06/20 05:43:45;;;;;;;0.53;0.47;;;;;;;21.38;82.77;99729.34;4990737;28;20485;-51
2022/06/20 05:46:24;;;;;;;0.40;0.20;;;;;;;21.22;83.95;99724.25;4981209;28;20478;-49
2022/06/20 05:48:54;;;;;;;0.40;0.20;;;;;;;21.09;84.59;99726.25;5008786;28;20453;-50
2022/06/20 05:51:23;;;;;;;0.40;0.20;;;;;;;21.06;85.06;99725.66;4990641;28;20457;-50
2022/06/20 05:53:56;;;;;;;0.40;0.20;;;;;;;21.22;84.50;99734.22;4982569;28;20458;-51
2022/06/20 05:56:30;;;;;;;0.40;0.20;;;;;;;20.94;86.19;99744.56;4985626;28;20523;-51
2022/06/20 05:58:57;;;;;;;0.40;0.20;;;;;;;21.28;84.92;99767.06;4991920;28;20470;-49
2022/06/20 06:01:34;;;;;;;0.40;0.20;;;;;;;21.29;84.88;99789.56;4980994;28;20458;-49
2022/06/20 06:04:20;;;;;;;0.40;0.20;;;;;;;21.37;85.03;99783.50;4983119;28;20461;-50
2022/06/20 06:07:25;;;;;;;1.07;1.07;;;;;;;21.39;86.32;99766.22;4991432;28;20454;-50
2022/06/20 06:09:54;;;;;;;0.40;0.20;;;;;;;21.38;90.58;99734.75;4983509;28;20523;-50
2022/06/20 06:12:50;;;;;;;0.40;0.20;;;;;;;21.02;92.61;99726.88;5003020;28;20453;-50
2022/06/20 06:15:32;;;;;;;0.40;0.20;;;;;;;20.82;91.99;99707.72;4985872;28;21076;-50
2022/06/20 06:18:08;;;;;;;0.40;0.20;;;;;;;20.74;95.74;99685.88;4988539;28;20465;-50
2022/06/20 06:20:36;;;;;;;0.40;0.20;;;;;;;20.59;99.12;99676.31;4982819;28;20525;-50
2022/06/20 06:23:06;;;;;;;0.40;0.20;;;;;;;20.68;98.99;99670.16;4982001;28;20456;-50
2022/06/20 06:25:42;;;;;;;0.40;0.20;;;;;;;20.56;99.24;99657.63;4991530;28;21080;-49
2022/06/20 06:28:16;;;;;;;0.40;0.20;;;;;;;20.91;97.59;99650.25;4996028;28;20965;-51
2022/06/20 06:30:49;;;;;;;0.40;0.20;;;;;;;20.76;98.01;99678.50;4982271;28;20482;-49
2022/06/20 06:33:34;;;;;;;0.40;0.20;;;;;;;20.49;99.68;99689.69;5005178;28;20954;-51
2022/06/20 06:36:16;;;;;;;0.40;0.20;;;;;;;20.20;100.00;99701.88;4997706;28;20520;-50
2022/06/20 06:38:49;;;;;;;0.47;0.27;;;;;;;20.26;100.00;99726.53;4999867;28;20458;-50
2022/06/20 06:41:26;;;;;;;0.40;0.20;;;;;;;20.32;100.00;99736.00;4992662;28;20958;-49
2022/06/20 06:43:55;;;;;;;0.40;0.20;;;;;;;20.36;100.00;99726.69;4976259;28;20516;-50
2022/06/20 06:46:32;;;;;;;0.40;0.20;;;;;;;20.27;100.00;99739.03;4993471;28;20504;-50
2022/06/20 06:49:13;;;;;;;0.40;0.20;;;;;;;20.27;100.00;99738.19;4980137;28;20508;-49
2022/06/20 06:52:06;;;;;;;0.40;0.20;;;;;;;20.28;100.00;99724.56;4991899;28;20502;-50
2022/06/20 06:54:42;;;;;;;0.40;0.20;;;;;;;20.36;100.00;99713.19;4974499;28;21015;-50
2022/06/20 06:57:15;;;;;;;0.40;0.20;;;;;;;20.32;100.00;99704.47;5007577;28;20456;-49
2022/06/20 06:59:54;;;;;;;0.40;0.20;;;;;;;20.51;100.00;99701.22;4987903;28;20924;-51
2022/06/20 07:02:25;;;;;;;0.40;0.20;;;;;;;20.44;100.00;99718.88;4985509;28;20520;-50
2022/06/20 07:04:58;;;;;;;0.40;0.20;;;;;;;20.46;100.00;99721.47;5014417;28;20490;-50
2022/06/20 07:07:35;;;;;;;0.40;0.20;;;;;;;20.45;100.00;99725.16;4988539;28;20514;-50
2022/06/20 07:10:02;;;;;;;0.40;0.20;;;;;;;20.24;100.00;99730.34;4997318;28;20506;-50
2022/06/20 07:12:50;;;;;;;0.40;0.20;;;;;;;20.24;100.00;99723.09;4998553;28;20457;-50
2022/06/20 07:15:23;;;;;;;0.40;0.20;;;;;;;20.38;100.00;99739.06;5003949;28;20481;-50
2022/06/20 07:18:01;;;;;;;0.40;0.20;;;;;;;20.49;100.00;99735.56;4991646;28;20609;-50
2022/06/20 07:20:40;;;;;;;0.40;0.20;;;;;;;20.70;100.00;99730.34;4993044;28;20559;-51
2022/06/20 07:23:14;;;;;;;0.40;0.20;;;;;;;20.82;100.00;99726.63;4991844;28;20446;-47
2022/06/20 07:25:46;;;;;;;0.40;0.20;;;;;;;20.42;100.00;99731.63;4997147;28;20560;-47
2022/06/20 07:28:48;;;;;;;0.40;0.20;;;;;;;20.48;100.00;99746.50;5003258;28;20453;-47
2022/06/20 07:31:17;;;;;;;0.40;0.20;;;;;;;20.56;100.00;99728.72;4983354;28;20449;-46
2022/06/20 07:33:51;;;;;;;0.40;0.20;;;;;;;20.36;100.00;99759.94;4990762;28;20510;-47
2022/06/20 07:36:24;;;;;;;0.40;0.20;;;;;;;20.63;100.00;99775.00;5001358;28;20473;-47
2022/06/20 07:39:05;;;;;;;0.40;0.20;;;;;;;20.46;100.00;99784.44;4983739;28;20596;-51
2022/06/20 07:41:31;;;;;;;0.40;0.20;;;;;;;20.48;100.00;99787.88;5011381;28;20479;-46
2022/06/20 07:44:17;;;;;;;0.40;0.20;;;;;;;20.35;100.00;99797.84;4999159;28;20505;-47
2022/06/20 07:46:51;;;;;;;0.40;0.20;;;;;;;20.23;100.00;99812.28;5001307;28;20539;-48
2022/06/20 07:49:27;;;;;;;0.40;0.20;;;;;;;19.86;100.00;99820.44;4996690;28;20840;-46
2022/06/20 07:51:57;;;;;;;0.50;0.20;;;;;;;19.63;100.00;99818.63;4990456;28;20453;-46
2022/06/20 07:54:32;;;;;;;0.40;0.20;;;;;;;19.59;100.00;99831.44;4992451;28;20817;-46
2022/06/20 07:57:08;;;;;;;0.50;0.20;;;;;;;19.63;100.00;99818.63;5003746;28;20874;-47
2022/06/20 07:59:44;;;;;;;0.40;0.20;;;;;;;19.56;100.00;99815.50;4996244;28;20481;-49
2022/06/20 08:02:38;;;;;;;0.40;0.20;;;;;;;19.41;100.00;99808.50;5001339;28;20460;-47
2022/06/20 08:05:06;;;;;;;0.40;0.20;;;;;;;19.69;100.00;99810.91;4994475;28;20474;-46
2022/06/20 08:07:40;;;;;;;0.40;0.20;;;;;;;19.87;100.00;99813.22;4986833;28;20499;-47
2022/06/20 08:10:16;;;;;;;0.40;0.20;;;;;;;19.51;99.57;99831.97;4991910;28;20458;-47
2022/06/20 08:13:03;;;;;;;0.40;0.20;;;;;;;19.70;99.69;99828.81;4991260;28;20476;-46
2022/06/20 08:15:36;;;;;;;0.40;0.20;;;;;;;19.50;98.20;99840.19;4985350;28;20465;-46
2022/06/20 08:18:03;;;;;;;0.40;0.20;;;;;;;19.47;97.69;99843.97;4986613;28;20516;-47
2022/06/20 08:20:42;;;;;;;0.40;0.20;;;;;;;19.35;97.27;99844.84;4986578;28;20489;-46
2022/06/20 08:23:27;;;;;;;0.40;0.20;;;;;;;19.33;96.97;99840.56;4982681;28;20504;-47
2022/06/20 08:26:01;;;;;;;0.40;0.20;;;;;;;19.09;97.93;99860.19;4983015;28;20524;-46
2022/06/20 08:28:53;;;;;;;0.40;0.20;;;;;;;19.01;98.07;99859.00;4986534;28;20508;-47
2022/06/20 08:31:33;;;;;;;0.40;0.20;;;;;;;18.87;97.19;99874.28;5010570;28;20682;-47
2022/06/20 08:34:22;;;;;;;0.40;0.20;;;;;;;18.56;98.76;99874.66;4982497;28;20981;-46
2022/06/20 08:37:02;;;;;;;0.40;0.20;;;;;;;18.87;96.88;99868.91;4984231;28;20497;-47
2022/06/20 08:39:40;;;;;;;0.40;0.20;;;;;;;18.81;96.50;99892.72;4976099;28;20801;-46
2022/06/20 08:42:38;;;;;;;0.40;0.20;;;;;;;18.81;96.00;99911.56;4990317;28;20449;-46
2022/06/20 08:45:35;;;;;;;0.40;0.20;;;;;;;18.58;96.60;99916.66;4983204;28;20475;-47
2022/06/20 08:48:10;;;;;;;0.40;0.20;;;;;;;18.82;95.30;99926.75;4975912;28;20442;-48
2022/06/20 08:50:58;;;;;;;0.40;0.20;;;;;;;19.00;94.79;99909.31;4993214;28;20445;-47
2022/06/20 08:53:43;;;;;;;0.40;0.20;;;;;;;19.04;94.76;99932.38;4981904;28;20446;-47
2022/06/20 08:57:01;;;;;;;0.40;0.20;;;;;;;19.11;92.82;99944.47;4984700;28;20471;-47
2022/06/20 08:59:59;;;;;;;0.40;0.20;;;;;;;19.53;90.91;99943.28;4975184;28;20470;-47
2022/06/20 09:02:49;;;;;;;0.40;0.20;;;;;;;19.55;89.82;99929.72;4975823;28;20951;-48
2022/06/20 09:05:34;;;;;;;0.40;0.20;;;;;;;19.58;89.91;99934.03;4988678;28;20471;-49
2022/06/20 09:08:23;;;;;;;0.40;0.20;;;;;;;19.66;89.57;99931.66;4989617;28;20446;-47
2022/06/20 09:10:52;;;;;;;0.40;0.20;;;;;;;19.56;88.44;99928.75;5004919;28;20518;-47
2022/06/20 09:13:54;;;;;;;0.40;0.20;;;;;;;19.52;87.90;99949.66;4990486;28;20450;-48
2022/06/20 09:16:36;;;;;;;0.40;0.20;;;;;;;19.73;87.86;99965.28;4981520;28;20473;-47
2022/06/20 09:19:39;;;;;;;0.40;0.20;;;;;;;19.46;88.79;99970.75;4983523;28;20498;-47
2022/06/20 09:22:09;;;;;;;0.40;0.20;;;;;;;19.16;89.92;99982.72;4975288;28;20442;-47
2022/06/20 09:24:35;;;;;;;0.40;0.20;;;;;;;19.30;89.69;99991.69;4988250;28;20459;-47
2022/06/20 09:27:18;;;;;;;0.40;0.20;;;;;;;19.15;90.31;100005.25;4985911;28;20511;-47
2022/06/20 09:30:03;;;;;;;0.40;0.20;;;;;;;19.15;90.80;100007.94;4987832;28;20478;-47
2022/06/20 09:33:13;;;;;;;0.40;0.20;;;;;;;18.98;90.82;100005.53;4988397;28;20944;-47
2022/06/20 09:35:59;;;;;;;0.40;0.20;;;;;;;19.13;90.24;100015.28;4988184;28;20469;-47
2022/06/20 09:38:44;;;;;;;0.40;0.20;;;;;;;18.78;90.98;100019.50;4986366;28;20504;-47
2022/06/20 09:41:32;;;;;;;0.40;0.20;;;;;;;18.71;90.92;100028.94;4974723;28;20906;-48
2022/06/20 09:44:36;;;;;;;0.40;0.20;;;;;;;18.83;90.96;100023.59;4988066;28;20861;-48
2022/06/20 09:47:57;;;;;;;0.40;0.20;;;;;;;18.71;91.24;100039.72;4987742;28;20456;-47
2022/06/20 09:50:29;;;;;;;0.40;0.20;;;;;;;18.80;90.43;100036.44;4985306;28;20449;-47
2022/06/20 09:53:18;;;;;;;0.40;0.20;;;;;;;18.90;88.80;100042.91;4985234;28;20942;-45
2022/06/20 09:55:57;;;;;;;0.40;0.20;;;;;;;18.87;88.51;100045.81;4975812;28;20471;-46
2022/06/20 09:58:38;;;;;;;0.40;0.20;;;;;;;18.92;87.91;100051.78;4991861;28;20492;-45
2022/06/20 10:01:21;;;;;;;0.40;0.20;;;;;;;18.35;88.05;100046.50;4985656;28;20567;-47
2022/06/20 10:03:50;;;;;;;0.40;0.20;;;;;;;18.66;88.07;100047.25;4974699;28;20479;-47
2022/06/20 10:06:35;;;;;;;0.40;0.20;;;;;;;18.87;86.87;100052.06;4987246;28;20563;-47
2022/06/20 10:09:22;;;;;;;0.40;0.20;;;;;;;18.59;88.15;100039.53;4984381;28;20453;-47
2022/06/20 10:12:31;;;;;;;0.40;0.20;;;;;;;18.48;88.57;100023.19;5000621;28;20446;-49
2022/06/20 10:15:10;;;;;;;0.40;0.20;;;;;;;18.81;87.79;100030.06;4978940;28;20532;-47
2022/06/20 10:18:05;;;;;;;0.40;0.20;;;;;;;19.27;85.94;100025.09;4987949;28;20441;-49
2022/06/20 10:21:12;;;;;;;0.50;0.20;;;;;;;19.10;86.13;100025.41;4966187;28;20589;-47
2022/06/20 10:24:07;;;;;;;0.40;0.20;;;;;;;19.62;85.21;100020.00;4973997;28;20458;-47
2022/06/20 10:26:43;;;;;;;0.40;0.20;;;;;;;19.27;86.65;100035.03;4974110;28;20998;-49
2022/06/20 10:29:09;;;;;;;0.40;0.20;;;;;;;19.53;85.80;100045.75;4986975;28;20516;-47
2022/06/20 10:32:23;;;;;;;0.40;0.20;;;;;;;19.47;84.53;100042.63;4982381;28;20449;-45
2022/06/20 10:35:15;;;;;;;0.40;0.20;;;;;;;19.79;84.25;100046.66;4965355;28;20502;-46
2022/06/20 10:37:57;;;;;;;0.40;0.20;;;;;;;19.97;83.30;100052.56;4986803;28;20478;-45
2022/06/20 10:40:32;;;;;;;0.40;0.20;;;;;;;20.43;81.86;100070.91;4987190;28;20531;-45
2022/06/20 10:43:10;;;;;;;0.70;0.70;;;;;;;20.28;80.97;100061.16;4985073;28;20991;-45
2022/06/20 10:45:46;;;;;;;0.40;0.20;;;;;;;19.99;81.92;100063.25;4986447;28;20960;-47
2022/06/20 10:48:13;;;;;;;0.40;0.20;;;;;;;19.79;83.55;100073.63;4985042;28;20460;-45
2022/06/20 10:51:27;;;;;;;0.40;0.20;;;;;;;19.41;84.85;100083.47;4988496;28;20454;-47
2022/06/20 10:53:56;;;;;;;0.40;0.20;;;;;;;19.79;84.28;100072.75;4985985;28;20462;-46
2022/06/20 10:56:46;;;;;;;0.40;0.20;;;;;;;19.76;83.94;100071.16;4985168;28;20477;-46
2022/06/20 10:59:33;;;;;;;0.40;0.20;;;;;;;19.55;84.54;100082.56;4975461;28;20497;-46
2022/06/20 11:02:08;;;;;;;0.40;0.20;;;;;;;19.22;86.35;100097.34;4986359;28;20494;-45
2022/06/20 11:04:52;;;;;;;0.40;0.20;;;;;;;19.47;85.65;100094.72;4985923;28;20495;-45
2022/06/20 11:07:46;;;;;;;0.40;0.20;;;;;;;19.09;87.47;100105.38;4973456;28;20490;-47
2022/06/20 11:10:18;;;;;;;0.40;0.20;;;;;;;19.12;87.67;100112.38;4998471;28;20523;-45
2022/06/20 11:13:00;;;;;;;0.40;0.20;;;;;;;19.28;86.04;100131.94;4993584;28;20449;-46
2022/06/20 11:15:40;;;;;;;0.40;0.20;;;;;;;19.18;86.66;100120.03;4982447;28;20466;-46
2022/06/20 11:18:24;;;;;;;0.40;0.20;;;;;;;19.36;86.13;100120.66;4982952;28;20453;-46
2022/06/20 11:20:59;;;;;;;0.40;0.20;;;;;;;19.58;86.05;100136.25;4986550;28;20563;-46
2022/06/20 11:23:40;;;;;;;0.40;0.20;;;;;;;19.77;84.27;100134.91;4973247;28;20504;-47
2022/06/20 11:26:10;;;;;;;0.40;0.20;;;;;;;19.54;83.15;100132.88;4986686;28;20544;-49
2022/06/20 11:28:54;;;;;;;0.40;0.20;;;;;;;19.59;83.64;100133.47;4983364;28;20831;-50
2022/06/20 11:31:40;;;;;;;0.40;0.20;;;;;;;19.89;81.82;100126.94;5007518;28;20445;-49
2022/06/20 11:34:28;;;;;;;0.40;0.20;;;;;;;19.92;81.75;100113.22;4979872;28;20450;-50
2022/06/20 11:37:00;;;;;;;0.40;0.20;;;;;;;19.86;81.59;100108.25;4981033;28;20446;-49
2022/06/20 11:39:51;;;;;;;0.40;0.20;;;;;;;19.90;81.61;100094.44;4986238;28;20461;-49
2022/06/20 11:42:51;;;;;;;0.40;0.20;;;;;;;20.47;80.42;100091.28;4986005;28;20540;-49
2022/06/20 11:45:42;;;;;;;0.40;0.20;;;;;;;20.75;79.25;100103.63;4985881;28;20469;-49
2022/06/20 11:48:40;;;;;;;0.40;0.20;;;;;;;21.26;76.27;100122.38;4983740;28;20507;-48
2022/06/20 11:51:14;;;;;;;0.40;0.30;;;;;;;21.32;75.55;100138.13;4973422;28;20446;-49
2022/06/20 11:54:19;;;;;;;0.40;0.20;;;;;;;21.11;76.99;100142.44;4986029;28;20453;-50
2022/06/20 11:57:07;;;;;;;0.40;0.20;;;;;;;21.03;76.84;100148.41;4985002;28;20452;-49
2022/06/20 11:59:44;;;;;;;0.40;0.20;;;;;;;20.92;77.32;100160.00;4985931;28;20500;-50
2022/06/20 12:02:34;;;;;;;0.40;0.20;;;;;;;20.64;78.00;100165.69;4988937;28;20506;-49
2022/06/20 12:05:31;;;;;;;0.40;0.20;;;;;;;20.76;77.95;100145.03;4989459;28;20501;-49
2022/06/20 12:08:01;;;;;;;0.40;0.20;;;;;;;20.70;77.38;100143.66;4991317;28;20446;-50
2022/06/20 12:10:42;;;;;;;0.40;0.20;;;;;;;20.26;79.72;100142.25;5005211;28;20966;-49
2022/06/20 12:13:43;;;;;;;0.40;0.20;;;;;;;20.61;78.83;100133.50;4989975;28;20570;-49
2022/06/20 12:16:19;;;;;;;0.40;0.20;;;;;;;20.09;79.02;100134.50;4989639;28;20530;-49
2022/06/20 12:24:51;;;;;;;0.40;0.30;;;;;;;20.22;76.87;100143.44;4989036;28;20533;-50
2022/06/20 12:27:19;;;;;;;0.40;0.20;;;;;;;20.28;78.02;100134.03;4988822;28;20456;-49
2022/06/20 12:29:48;;;;;;;0.40;0.20;;;;;;;20.34;76.52;100139.00;4982545;28;20453;-49
2022/06/20 12:32:21;;;;;;;0.40;0.20;;;;;;;20.45;75.88;100141.00;4982871;28;20450;-50
2022/06/20 12:34:57;;;;;;;0.40;0.20;;;;;;;19.93;76.71;100145.50;4983607;28;20464;-49
2022/06/20 12:37:35;;;;;;;0.40;0.20;;;;;;;19.98;76.02;100143.31;4982544;28;20477;-50